sensor_id;sensor_type;location;lat;lon;timestamp;pressure;altitude;pressure_sealevel;temperature;humidity
32243;BME280;18731;42.830;24.390;2023-04-29T03:01:11;94557.75;;;3.03;75.59
32243;BME280;18731;42.830;24.390;2023-04-29T03:03:37;94565.91;;;3.06;75.87
32243;BME280;18731;42.830;24.390;2023-04-29T03:06:03;94564.78;;;3.12;75.54
32243;BME280;18731;42.830;24.390;2023-04-29T03:08:28;94567.94;;;3.14;75.62
32243;BME280;18731;42.830;24.390;2023-04-29T03:10:54;94557.94;;;3.11;75.60
32243;BME280;18731;42.830;24.390;2023-04-29T03:13:20;94566.03;;;3.20;75.82
32243;BME280;18731;42.830;24.390;2023-04-29T03:15:45;94565.28;;;3.14;75.80
32243;BME280;18731;42.830;24.390;2023-04-29T03:18:11;94572.03;;;3.26;75.41
32243;BME280;18731;42.830;24.390;2023-04-29T03:20:37;94580.69;;;3.31;75.69
32243;BME280;18731;42.830;24.390;2023-04-29T03:23:03;94584.66;;;3.29;75.58
32243;BME280;18731;42.830;24.390;2023-04-29T03:25:31;94594.66;;;3.32;75.50
32243;BME280;18731;42.830;24.390;2023-04-29T03:27:56;94596.78;;;3.30;75.92
32243;BME280;18731;42.830;24.390;2023-04-29T03:30:22;94597.25;;;3.37;75.75
32243;BME280;18731;42.830;24.390;2023-04-29T03:32:47;94589.94;;;3.29;75.91
32243;BME280;18731;42.830;24.390;2023-04-29T03:35:13;94599.81;;;3.42;75.94
32243;BME280;18731;42.830;24.390;2023-04-29T03:37:39;94595.63;;;3.41;75.99
32243;BME280;18731;42.830;24.390;2023-04-29T03:40:06;94598.31;;;3.36;75.97
32243;BME280;18731;42.830;24.390;2023-04-29T03:42:31;94600.63;;;3.42;75.99
32243;BME280;18731;42.830;24.390;2023-04-29T03:44:57;94606.13;;;3.46;76.23
32243;BME280;18731;42.830;24.390;2023-04-29T03:47:22;94616.91;;;3.49;76.22
32243;BME280;18731;42.830;24.390;2023-04-29T03:49:48;94608.97;;;3.49;76.01
32243;BME280;18731;42.830;24.390;2023-04-29T03:52:14;94610.28;;;3.52;75.97
32243;BME280;18731;42.830;24.390;2023-04-29T03:54:41;94613.88;;;3.61;75.90
32243;BME280;18731;42.830;24.390;2023-04-29T03:57:06;94608.94;;;3.78;75.27
32243;BME280;18731;42.830;24.390;2023-04-29T03:59:32;94609.59;;;3.65;75.62
32243;BME280;18731;42.830;24.390;2023-04-29T04:01:57;94590.19;;;3.56;75.51
32243;BME280;18731;42.830;24.390;2023-04-29T04:04:23;94600.41;;;3.63;76.07
32243;BME280;18731;42.830;24.390;2023-04-29T04:06:49;94583.38;;;3.50;76.33
32243;BME280;18731;42.830;24.390;2023-04-29T04:09:17;94602.19;;;3.67;76.53
32243;BME280;18731;42.830;24.390;2023-04-29T04:11:43;94604.00;;;3.72;76.48
32243;BME280;18731;42.830;24.390;2023-04-29T04:14:09;94609.50;;;3.75;76.15
32243;BME280;18731;42.830;24.390;2023-04-29T04:16:34;94610.38;;;3.90;76.04
32243;BME280;18731;42.830;24.390;2023-04-29T04:19:00;94607.34;;;4.01;75.93
32243;BME280;18731;42.830;24.390;2023-04-29T04:21:26;94600.47;;;4.00;76.15
32243;BME280;18731;42.830;24.390;2023-04-29T04:23:52;94587.69;;;3.88;75.95
32243;BME280;18731;42.830;24.390;2023-04-29T04:26:18;94584.13;;;3.98;75.97
32243;BME280;18731;42.830;24.390;2023-04-29T04:28:45;94602.16;;;4.15;76.33
32243;BME280;18731;42.830;24.390;2023-04-29T04:31:11;94600.44;;;4.24;75.99
32243;BME280;18731;42.830;24.390;2023-04-29T04:33:40;94595.50;;;4.36;75.42
32243;BME280;18731;42.830;24.390;2023-04-29T04:36:06;94600.22;;;4.39;75.97
32243;BME280;18731;42.830;24.390;2023-04-29T04:38:32;94602.28;;;4.42;76.18
32243;BME280;18731;42.830;24.390;2023-04-29T04:40:58;94602.94;;;4.53;75.38
32243;BME280;18731;42.830;24.390;2023-04-29T04:43:24;94596.38;;;4.50;75.21
32243;BME280;18731;42.830;24.390;2023-04-29T04:45:49;94597.28;;;4.60;74.80
32243;BME280;18731;42.830;24.390;2023-04-29T04:48:15;94610.28;;;4.75;74.99
32243;BME280;18731;42.830;24.390;2023-04-29T04:50:40;94596.06;;;4.71;74.82
32243;BME280;18731;42.830;24.390;2023-04-29T04:53:07;94587.56;;;4.74;75.58
32243;BME280;18731;42.830;24.390;2023-04-29T04:55:33;94595.63;;;4.82;75.65
32243;BME280;18731;42.830;24.390;2023-04-29T04:57:59;94600.63;;;4.84;76.00
32243;BME280;18731;42.830;24.390;2023-04-29T05:00:25;94591.16;;;4.97;76.00
32243;BME280;18731;42.830;24.390;2023-04-29T05:02:50;94589.22;;;5.02;74.93
32243;BME280;18731;42.830;24.390;2023-04-29T05:05:16;94586.97;;;5.09;74.45
32243;BME280;18731;42.830;24.390;2023-04-29T05:07:42;94576.22;;;5.20;74.76
32243;BME280;18731;42.830;24.390;2023-04-29T05:10:08;94590.78;;;5.36;74.26
32243;BME280;18731;42.830;24.390;2023-04-29T05:12:35;94577.75;;;5.39;74.23
32243;BME280;18731;42.830;24.390;2023-04-29T05:15:01;94578.44;;;5.59;74.10
32243;BME280;18731;42.830;24.390;2023-04-29T05:17:27;94575.81;;;5.59;74.68
32243;BME280;18731;42.830;24.390;2023-04-29T05:19:53;94562.56;;;5.72;72.13
32243;BME280;18731;42.830;24.390;2023-04-29T05:22:18;94564.72;;;5.84;71.87
32243;BME280;18731;42.830;24.390;2023-04-29T05:24:44;94556.97;;;5.88;71.90
32243;BME280;18731;42.830;24.390;2023-04-29T05:27:13;94554.41;;;6.10;72.31
32243;BME280;18731;42.830;24.390;2023-04-29T05:29:38;94552.53;;;6.47;70.07
32243;BME280;18731;42.830;24.390;2023-04-29T05:32:04;94544.25;;;6.62;69.95
32243;BME280;18731;42.830;24.390;2023-04-29T05:34:30;94557.13;;;6.99;70.52
32243;BME280;18731;42.830;24.390;2023-04-29T05:36:55;94537.25;;;7.19;69.71
32243;BME280;18731;42.830;24.390;2023-04-29T05:39:21;94558.66;;;7.54;69.06
32243;BME280;18731;42.830;24.390;2023-04-29T05:41:47;94553.94;;;7.82;68.08
32243;BME280;18731;42.830;24.390;2023-04-29T05:44:13;94547.91;;;8.07;65.36
32243;BME280;18731;42.830;24.390;2023-04-29T05:46:38;94542.03;;;8.36;63.47
32243;BME280;18731;42.830;24.390;2023-04-29T05:49:04;94556.28;;;8.66;62.41
32243;BME280;18731;42.830;24.390;2023-04-29T05:51:30;94551.25;;;8.90;62.08
32243;BME280;18731;42.830;24.390;2023-04-29T05:53:56;94547.78;;;8.98;59.30
32243;BME280;18731;42.830;24.390;2023-04-29T05:56:24;94555.94;;;9.02;59.98
32243;BME280;18731;42.830;24.390;2023-04-29T05:58:49;94544.81;;;9.09;59.18
32243;BME280;18731;42.830;24.390;2023-04-29T06:01:15;94544.28;;;9.24;58.54
32243;BME280;18731;42.830;24.390;2023-04-29T06:03:44;94527.03;;;9.30;59.47
32243;BME280;18731;42.830;24.390;2023-04-29T06:06:10;94527.28;;;9.54;58.05
32243;BME280;18731;42.830;24.390;2023-04-29T06:08:36;94523.88;;;9.75;58.25
32243;BME280;18731;42.830;24.390;2023-04-29T06:11:03;94522.31;;;10.03;56.51
32243;BME280;18731;42.830;24.390;2023-04-29T06:13:31;94520.94;;;10.26;57.26
32243;BME280;18731;42.830;24.390;2023-04-29T06:15:57;94521.00;;;10.47;54.34
32243;BME280;18731;42.830;24.390;2023-04-29T06:18:22;94512.09;;;10.76;54.95
32243;BME280;18731;42.830;24.390;2023-04-29T06:20:48;94512.00;;;11.06;53.80
32243;BME280;18731;42.830;24.390;2023-04-29T06:23:14;94515.38;;;11.27;51.04
32243;BME280;18731;42.830;24.390;2023-04-29T06:25:39;94515.19;;;11.44;51.48
32243;BME280;18731;42.830;24.390;2023-04-29T06:28:05;94503.91;;;11.26;51.19
32243;BME280;18731;42.830;24.390;2023-04-29T06:30:32;94506.75;;;11.09;51.23
32243;BME280;18731;42.830;24.390;2023-04-29T06:32:58;94509.69;;;10.83;50.18
32243;BME280;18731;42.830;24.390;2023-04-29T06:35:23;94498.06;;;10.46;51.81
32243;BME280;18731;42.830;24.390;2023-04-29T06:37:49;94513.00;;;10.39;52.90
32243;BME280;18731;42.830;24.390;2023-04-29T06:40:15;94499.59;;;10.26;54.13
32243;BME280;18731;42.830;24.390;2023-04-29T06:42:41;94503.91;;;10.40;53.75
32243;BME280;18731;42.830;24.390;2023-04-29T06:45:08;94499.63;;;10.68;53.86
32243;BME280;18731;42.830;24.390;2023-04-29T06:47:34;94490.97;;;10.71;54.24
32243;BME280;18731;42.830;24.390;2023-04-29T06:49:59;94476.13;;;10.94;53.57
32243;BME280;18731;42.830;24.390;2023-04-29T06:52:25;94489.09;;;11.17;52.77
32243;BME280;18731;42.830;24.390;2023-04-29T06:54:51;94493.16;;;11.47;51.91
32243;BME280;18731;42.830;24.390;2023-04-29T06:57:17;94485.69;;;11.65;50.18
32243;BME280;18731;42.830;24.390;2023-04-29T06:59:42;94480.59;;;11.84;50.27
32243;BME280;18731;42.830;24.390;2023-04-29T07:02:08;94471.97;;;12.15;48.08
32243;BME280;18731;42.830;24.390;2023-04-29T07:04:34;94470.75;;;12.53;48.03
32243;BME280;18731;42.830;24.390;2023-04-29T07:07:02;94476.63;;;12.86;45.30
32243;BME280;18731;42.830;24.390;2023-04-29T07:09:27;94473.44;;;13.09;44.63
32243;BME280;18731;42.830;24.390;2023-04-29T07:11:53;94470.97;;;13.32;44.28
32243;BME280;18731;42.830;24.390;2023-04-29T07:14:19;94475.22;;;13.64;43.50
32243;BME280;18731;42.830;24.390;2023-04-29T07:16:47;94472.00;;;13.90;45.07
32243;BME280;18731;42.830;24.390;2023-04-29T07:19:12;94460.22;;;14.30;43.58
32243;BME280;18731;42.830;24.390;2023-04-29T07:21:38;94451.78;;;14.66;43.55
32243;BME280;18731;42.830;24.390;2023-04-29T07:24:04;94463.19;;;15.02;40.98
32243;BME280;18731;42.830;24.390;2023-04-29T07:26:30;94463.13;;;15.40;39.41
32243;BME280;18731;42.830;24.390;2023-04-29T07:28:56;94466.34;;;15.50;38.96
32243;BME280;18731;42.830;24.390;2023-04-29T07:31:22;94457.84;;;15.67;37.43
32243;BME280;18731;42.830;24.390;2023-04-29T07:33:48;94461.03;;;15.99;36.00
32243;BME280;18731;42.830;24.390;2023-04-29T07:36:14;94444.50;;;16.27;32.29
32243;BME280;18731;42.830;24.390;2023-04-29T07:38:40;94434.41;;;16.50;34.06
32243;BME280;18731;42.830;24.390;2023-04-29T07:41:06;94416.06;;;16.63;28.82
32243;BME280;18731;42.830;24.390;2023-04-29T07:43:31;94443.50;;;17.02;27.32
32243;BME280;18731;42.830;24.390;2023-04-29T07:45:57;94448.84;;;17.35;29.37
32243;BME280;18731;42.830;24.390;2023-04-29T07:48:22;94453.06;;;17.77;29.97
32243;BME280;18731;42.830;24.390;2023-04-29T07:50:48;94440.53;;;18.03;33.05
32243;BME280;18731;42.830;24.390;2023-04-29T07:53:14;94433.41;;;18.31;31.53
32243;BME280;18731;42.830;24.390;2023-04-29T07:55:42;94438.63;;;18.69;26.67
32243;BME280;18731;42.830;24.390;2023-04-29T07:58:08;94424.41;;;18.93;30.42
32243;BME280;18731;42.830;24.390;2023-04-29T08:00:33;94431.41;;;19.05;28.07
32243;BME280;18731;42.830;24.390;2023-04-29T08:03:02;94427.53;;;19.09;30.26
32243;BME280;18731;42.830;24.390;2023-04-29T08:05:28;94429.91;;;19.43;27.58
32243;BME280;18731;42.830;24.390;2023-04-29T08:07:54;94423.72;;;19.32;28.99
32243;BME280;18731;42.830;24.390;2023-04-29T08:10:20;94426.44;;;19.28;25.41
32243;BME280;18731;42.830;24.390;2023-04-29T08:12:49;94420.56;;;18.94;25.59
32243;BME280;18731;42.830;24.390;2023-04-29T08:15:15;94435.31;;;19.39;27.52
32243;BME280;18731;42.830;24.390;2023-04-29T08:17:43;94426.84;;;19.48;26.90
32243;BME280;18731;42.830;24.390;2023-04-29T08:20:09;94420.69;;;19.72;25.76
32243;BME280;18731;42.830;24.390;2023-04-29T08:22:34;94420.28;;;19.81;24.37
32243;BME280;18731;42.830;24.390;2023-04-29T08:25:02;94419.09;;;20.00;26.74
32243;BME280;18731;42.830;24.390;2023-04-29T08:27:29;94426.03;;;20.22;24.67
32243;BME280;18731;42.830;24.390;2023-04-29T08:29:55;94425.22;;;20.46;27.79
32243;BME280;18731;42.830;24.390;2023-04-29T08:32:21;94422.91;;;20.48;22.51
32243;BME280;18731;42.830;24.390;2023-04-29T08:34:47;94421.34;;;20.47;23.64
32243;BME280;18731;42.830;24.390;2023-04-29T08:37:13;94398.44;;;20.63;23.58
32243;BME280;18731;42.830;24.390;2023-04-29T08:39:39;94380.28;;;20.52;22.67
32243;BME280;18731;42.830;24.390;2023-04-29T08:42:09;94411.25;;;20.59;21.54
32243;BME280;18731;42.830;24.390;2023-04-29T08:44:35;94410.53;;;20.44;23.03
32243;BME280;18731;42.830;24.390;2023-04-29T08:47:02;94415.19;;;20.40;24.56
32243;BME280;18731;42.830;24.390;2023-04-29T08:49:28;94405.38;;;20.71;25.75
32243;BME280;18731;42.830;24.390;2023-04-29T08:51:54;94408.94;;;20.57;25.76
32243;BME280;18731;42.830;24.390;2023-04-29T08:54:20;94406.53;;;20.84;24.69
32243;BME280;18731;42.830;24.390;2023-04-29T08:56:46;94403.34;;;20.96;23.33
32243;BME280;18731;42.830;24.390;2023-04-29T08:59:16;94406.88;;;20.93;25.12
32243;BME280;18731;42.830;24.390;2023-04-29T09:01:42;94407.19;;;21.02;24.82
32243;BME280;18731;42.830;24.390;2023-04-29T09:04:14;94402.69;;;20.67;23.03
32243;BME280;18731;42.830;24.390;2023-04-29T09:06:44;94399.97;;;20.71;24.44
32243;BME280;18731;42.830;24.390;2023-04-29T09:09:11;94395.00;;;20.55;25.71
32243;BME280;18731;42.830;24.390;2023-04-29T09:11:39;94388.88;;;20.19;25.19
32243;BME280;18731;42.830;24.390;2023-04-29T09:14:04;94390.44;;;20.13;24.76
32243;BME280;18731;42.830;24.390;2023-04-29T09:16:30;94379.63;;;20.02;25.83
32243;BME280;18731;42.830;24.390;2023-04-29T09:18:56;94376.06;;;20.30;25.50
32243;BME280;18731;42.830;24.390;2023-04-29T09:21:24;94364.91;;;20.07;24.18
32243;BME280;18731;42.830;24.390;2023-04-29T09:23:58;94364.94;;;20.00;24.26
32243;BME280;18731;42.830;24.390;2023-04-29T09:26:24;94363.72;;;20.22;23.50
32243;BME280;18731;42.830;24.390;2023-04-29T09:29:10;94362.53;;;20.23;24.60
32243;BME280;18731;42.830;24.390;2023-04-29T09:31:40;94361.09;;;19.72;22.17
32243;BME280;18731;42.830;24.390;2023-04-29T09:34:07;94352.56;;;19.91;24.34
32243;BME280;18731;42.830;24.390;2023-04-29T09:39:06;94351.75;;;20.09;24.21
32243;BME280;18731;42.830;24.390;2023-04-29T09:44:17;94334.44;;;19.53;23.36
32243;BME280;18731;42.830;24.390;2023-04-29T09:49:28;94337.50;;;19.41;24.53
32243;BME280;18731;42.830;24.390;2023-04-29T09:51:56;94341.78;;;19.63;27.52
32243;BME280;18731;42.830;24.390;2023-04-29T09:54:24;94345.59;;;19.90;28.57
32243;BME280;18731;42.830;24.390;2023-04-29T09:56:51;94331.59;;;20.17;25.62
32243;BME280;18731;42.830;24.390;2023-04-29T09:59:18;94337.47;;;19.94;23.45
32243;BME280;18731;42.830;24.390;2023-04-29T10:01:48;94333.94;;;20.15;27.15
32243;BME280;18731;42.830;24.390;2023-04-29T10:04:16;94344.69;;;20.43;26.54
32243;BME280;18731;42.830;24.390;2023-04-29T10:06:44;94340.28;;;20.74;24.98
32243;BME280;18731;42.830;24.390;2023-04-29T10:09:14;94330.81;;;20.20;24.51
32243;BME280;18731;42.830;24.390;2023-04-29T10:11:43;94331.91;;;20.47;22.73
32243;BME280;18731;42.830;24.390;2023-04-29T10:14:15;94321.50;;;20.28;24.73
32243;BME280;18731;42.830;24.390;2023-04-29T10:16:47;94325.00;;;20.25;24.78
32243;BME280;18731;42.830;24.390;2023-04-29T10:19:52;94308.34;;;20.19;24.49
32243;BME280;18731;42.830;24.390;2023-04-29T10:22:44;94321.97;;;19.98;24.22
32243;BME280;18731;42.830;24.390;2023-04-29T10:25:16;94313.09;;;19.94;24.27
32243;BME280;18731;42.830;24.390;2023-04-29T10:27:43;94315.25;;;20.42;28.36
32243;BME280;18731;42.830;24.390;2023-04-29T10:30:14;94319.09;;;20.48;26.78
32243;BME280;18731;42.830;24.390;2023-04-29T10:32:42;94308.34;;;20.23;24.55
32243;BME280;18731;42.830;24.390;2023-04-29T10:35:09;94310.28;;;20.26;24.33
32243;BME280;18731;42.830;24.390;2023-04-29T10:37:41;94289.81;;;20.11;25.29
32243;BME280;18731;42.830;24.390;2023-04-29T10:40:14;94306.03;;;20.21;24.64
32243;BME280;18731;42.830;24.390;2023-04-29T10:42:44;94312.63;;;20.13;25.74
32243;BME280;18731;42.830;24.390;2023-04-29T10:53:18;94292.66;;;20.66;25.10
32243;BME280;18731;42.830;24.390;2023-04-29T10:55:53;94296.88;;;20.81;25.12
32243;BME280;18731;42.830;24.390;2023-04-29T11:01:02;94285.06;;;20.43;23.99
32243;BME280;18731;42.830;24.390;2023-04-29T11:03:53;94288.53;;;20.44;26.20
32243;BME280;18731;42.830;24.390;2023-04-29T11:06:22;94277.09;;;20.81;25.48
32243;BME280;18731;42.830;24.390;2023-04-29T11:09:41;94285.00;;;21.13;25.71
32243;BME280;18731;42.830;24.390;2023-04-29T11:14:28;94287.00;;;21.09;24.42
32243;BME280;18731;42.830;24.390;2023-04-29T11:16:59;94276.84;;;21.16;24.56
32243;BME280;18731;42.830;24.390;2023-04-29T11:19:31;94271.06;;;21.59;23.60
32243;BME280;18731;42.830;24.390;2023-04-29T11:25:03;94274.97;;;20.47;24.31
32243;BME280;18731;42.830;24.390;2023-04-29T11:27:31;94266.66;;;19.92;24.67
32243;BME280;18731;42.830;24.390;2023-04-29T11:29:58;94269.00;;;19.86;25.81
32243;BME280;18731;42.830;24.390;2023-04-29T11:32:32;94270.94;;;19.82;25.37
32243;BME280;18731;42.830;24.390;2023-04-29T11:35:17;94274.84;;;19.67;26.50
32243;BME280;18731;42.830;24.390;2023-04-29T11:37:45;94267.47;;;19.82;25.58
32243;BME280;18731;42.830;24.390;2023-04-29T11:40:12;94265.16;;;19.73;26.24
32243;BME280;18731;42.830;24.390;2023-04-29T11:42:46;94263.28;;;19.56;25.65
32243;BME280;18731;42.830;24.390;2023-04-29T11:45:13;94258.25;;;19.44;24.44
32243;BME280;18731;42.830;24.390;2023-04-29T11:47:46;94269.84;;;19.55;24.33
32243;BME280;18731;42.830;24.390;2023-04-29T11:50:14;94260.78;;;20.08;26.10
32243;BME280;18731;42.830;24.390;2023-04-29T11:52:42;94260.34;;;20.20;23.46
32243;BME280;18731;42.830;24.390;2023-04-29T11:55:10;94256.78;;;20.37;25.76
32243;BME280;18731;42.830;24.390;2023-04-29T11:57:36;94250.38;;;20.76;27.14
32243;BME280;18731;42.830;24.390;2023-04-29T12:00:03;94254.25;;;21.34;29.66
32243;BME280;18731;42.830;24.390;2023-04-29T12:02:33;94262.53;;;21.95;27.00
32243;BME280;18731;42.830;24.390;2023-04-29T12:05:02;94239.97;;;22.32;24.10
32243;BME280;18731;42.830;24.390;2023-04-29T12:07:30;94235.94;;;22.43;24.06
32243;BME280;18731;42.830;24.390;2023-04-29T12:09:56;94242.69;;;21.98;24.37
32243;BME280;18731;42.830;24.390;2023-04-29T12:12:22;94238.16;;;21.88;24.55
32243;BME280;18731;42.830;24.390;2023-04-29T12:14:48;94237.00;;;21.51;25.00
32243;BME280;18731;42.830;24.390;2023-04-29T12:17:15;94245.47;;;21.57;24.62
32243;BME280;18731;42.830;24.390;2023-04-29T12:19:42;94251.91;;;21.36;25.91
32243;BME280;18731;42.830;24.390;2023-04-29T12:22:09;94261.09;;;20.24;26.47
32243;BME280;18731;42.830;24.390;2023-04-29T12:24:35;94251.81;;;20.25;26.15
32243;BME280;18731;42.830;24.390;2023-04-29T12:27:02;94249.69;;;19.77;26.96
32243;BME280;18731;42.830;24.390;2023-04-29T12:29:30;94236.97;;;19.42;27.66
32243;BME280;18731;42.830;24.390;2023-04-29T12:31:57;94259.06;;;19.09;29.14
32243;BME280;18731;42.830;24.390;2023-04-29T12:34:31;94258.28;;;19.22;30.80
32243;BME280;18731;42.830;24.390;2023-04-29T12:37:00;94256.72;;;19.36;30.58
32243;BME280;18731;42.830;24.390;2023-04-29T12:39:27;94260.56;;;19.42;29.86
32243;BME280;18731;42.830;24.390;2023-04-29T12:41:57;94267.56;;;19.18;28.73
32243;BME280;18731;42.830;24.390;2023-04-29T12:44:24;94258.28;;;18.94;25.96
32243;BME280;18731;42.830;24.390;2023-04-29T12:46:50;94256.75;;;18.97;27.08
32243;BME280;18731;42.830;24.390;2023-04-29T12:49:22;94241.66;;;18.63;27.95
32243;BME280;18731;42.830;24.390;2023-04-29T12:51:48;94245.81;;;18.29;28.63
32243;BME280;18731;42.830;24.390;2023-04-29T12:54:14;94249.69;;;18.35;28.33
32243;BME280;18731;42.830;24.390;2023-04-29T12:56:40;94249.94;;;18.02;29.24
32243;BME280;18731;42.830;24.390;2023-04-29T12:59:07;94241.84;;;18.02;29.20
32243;BME280;18731;42.830;24.390;2023-04-29T13:01:35;94244.13;;;17.92;29.41
32243;BME280;18731;42.830;24.390;2023-04-29T13:04:01;94256.94;;;18.17;30.04
32243;BME280;18731;42.830;24.390;2023-04-29T13:06:27;94250.75;;;18.13;30.51
32243;BME280;18731;42.830;24.390;2023-04-29T13:08:52;94250.31;;;17.96;30.26
32243;BME280;18731;42.830;24.390;2023-04-29T13:11:19;94257.25;;;17.97;30.11
32243;BME280;18731;42.830;24.390;2023-04-29T13:13:45;94251.06;;;17.90;30.25
32243;BME280;18731;42.830;24.390;2023-04-29T13:16:11;94242.28;;;17.38;29.39
32243;BME280;18731;42.830;24.390;2023-04-29T13:18:37;94251.91;;;17.35;29.62
32243;BME280;18731;42.830;24.390;2023-04-29T13:21:02;94255.78;;;17.38;30.75
32243;BME280;18731;42.830;24.390;2023-04-29T13:23:28;94256.59;;;17.49;30.96
32243;BME280;18731;42.830;24.390;2023-04-29T13:25:54;94258.63;;;17.63;32.81
32243;BME280;18731;42.830;24.390;2023-04-29T13:28:20;94261.78;;;17.72;31.96
32243;BME280;18731;42.830;24.390;2023-04-29T13:30:47;94256.31;;;17.65;31.15
32243;BME280;18731;42.830;24.390;2023-04-29T13:33:13;94261.22;;;17.45;30.60
32243;BME280;18731;42.830;24.390;2023-04-29T13:35:39;94253.41;;;17.29;30.84
32243;BME280;18731;42.830;24.390;2023-04-29T13:38:06;94265.25;;;17.14;31.10
32243;BME280;18731;42.830;24.390;2023-04-29T13:40:32;94262.84;;;17.02;30.99
32243;BME280;18731;42.830;24.390;2023-04-29T13:42:58;94262.28;;;16.79;30.97
32243;BME280;18731;42.830;24.390;2023-04-29T13:45:23;94259.91;;;16.74;31.31
32243;BME280;18731;42.830;24.390;2023-04-29T13:47:49;94253.56;;;16.55;30.63
32243;BME280;18731;42.830;24.390;2023-04-29T13:50:15;94261.59;;;16.48;30.83
32243;BME280;18731;42.830;24.390;2023-04-29T13:52:40;94254.94;;;16.38;31.14
32243;BME280;18731;42.830;24.390;2023-04-29T13:55:07;94245.78;;;16.47;31.54
32243;BME280;18731;42.830;24.390;2023-04-29T13:57:32;94258.25;;;16.62;32.84
32243;BME280;18731;42.830;24.390;2023-04-29T13:59:58;94251.69;;;16.59;31.14
32243;BME280;18731;42.830;24.390;2023-04-29T14:02:24;94248.50;;;16.50;32.22
32243;BME280;18731;42.830;24.390;2023-04-29T14:04:49;94257.94;;;16.67;33.16
32243;BME280;18731;42.830;24.390;2023-04-29T14:07:16;94249.31;;;16.54;32.87
32243;BME280;18731;42.830;24.390;2023-04-29T14:09:42;94259.69;;;16.52;33.14
32243;BME280;18731;42.830;24.390;2023-04-29T14:12:07;94258.63;;;16.60;33.21
32243;BME280;18731;42.830;24.390;2023-04-29T14:14:33;94261.63;;;16.52;32.57
32243;BME280;18731;42.830;24.390;2023-04-29T14:16:59;94255.38;;;16.44;32.45
32243;BME280;18731;42.830;24.390;2023-04-29T14:19:25;94250.06;;;16.51;33.79
32243;BME280;18731;42.830;24.390;2023-04-29T14:21:51;94264.03;;;16.64;34.02
32243;BME280;18731;42.830;24.390;2023-04-29T14:24:17;94276.09;;;16.74;33.28
32243;BME280;18731;42.830;24.390;2023-04-29T14:26:43;94267.09;;;16.62;33.83
32243;BME280;18731;42.830;24.390;2023-04-29T14:29:09;94269.56;;;16.75;35.23
32243;BME280;18731;42.830;24.390;2023-04-29T14:31:35;94278.78;;;16.74;32.91
32243;BME280;18731;42.830;24.390;2023-04-29T14:34:04;94278.28;;;16.64;34.11
32243;BME280;18731;42.830;24.390;2023-04-29T14:36:30;94274.13;;;16.70;33.23
32243;BME280;18731;42.830;24.390;2023-04-29T14:38:59;94267.09;;;16.62;33.36
32243;BME280;18731;42.830;24.390;2023-04-29T14:41:26;94283.69;;;16.64;33.68
32243;BME280;18731;42.830;24.390;2023-04-29T14:43:51;94279.28;;;16.49;33.90
32243;BME280;18731;42.830;24.390;2023-04-29T14:46:17;94264.44;;;16.25;34.19
32243;BME280;18731;42.830;24.390;2023-04-29T14:48:44;94279.16;;;16.35;35.16
32243;BME280;18731;42.830;24.390;2023-04-29T14:51:10;94274.50;;;16.32;35.24
32243;BME280;18731;42.830;24.390;2023-04-29T14:53:36;94276.78;;;16.30;34.10
32243;BME280;18731;42.830;24.390;2023-04-29T14:56:02;94272.19;;;16.30;34.04
32243;BME280;18731;42.830;24.390;2023-04-29T14:58:28;94269.28;;;16.13;34.06
32243;BME280;18731;42.830;24.390;2023-04-29T15:00:54;94273.88;;;16.08;35.86
32243;BME280;18731;42.830;24.390;2023-04-29T15:03:21;94282.66;;;16.05;35.10
32243;BME280;18731;42.830;24.390;2023-04-29T15:05:47;94267.50;;;15.90;35.76
32243;BME280;18731;42.830;24.390;2023-04-29T15:08:16;94286.50;;;16.04;34.88
32243;BME280;18731;42.830;24.390;2023-04-29T15:10:43;94280.25;;;15.97;35.35
32243;BME280;18731;42.830;24.390;2023-04-29T15:13:12;94271.38;;;15.93;35.47
32243;BME280;18731;42.830;24.390;2023-04-29T15:15:38;94233.56;;;15.82;33.68
32243;BME280;18731;42.830;24.390;2023-04-29T15:18:04;94269.63;;;16.07;34.70
32243;BME280;18731;42.830;24.390;2023-04-29T15:20:34;94273.13;;;16.12;35.01
32243;BME280;18731;42.830;24.390;2023-04-29T15:23:01;94279.97;;;16.05;35.21
32243;BME280;18731;42.830;24.390;2023-04-29T15:25:28;94276.38;;;15.94;36.56
32243;BME280;18731;42.830;24.390;2023-04-29T15:27:54;94271.91;;;16.05;36.33
32243;BME280;18731;42.830;24.390;2023-04-29T15:30:20;94281.94;;;16.08;36.58
32243;BME280;18731;42.830;24.390;2023-04-29T15:32:46;94275.00;;;16.07;36.77
32243;BME280;18731;42.830;24.390;2023-04-29T15:35:11;94285.00;;;16.07;36.33
32243;BME280;18731;42.830;24.390;2023-04-29T15:37:37;94294.81;;;15.92;37.10
32243;BME280;18731;42.830;24.390;2023-04-29T15:40:04;94292.59;;;15.68;38.21
32243;BME280;18731;42.830;24.390;2023-04-29T15:42:30;94287.06;;;15.34;40.23
32243;BME280;18731;42.830;24.390;2023-04-29T15:44:55;94290.47;;;15.05;41.34
32243;BME280;18731;42.830;24.390;2023-04-29T15:47:21;94290.25;;;14.68;42.51
32243;BME280;18731;42.830;24.390;2023-04-29T15:49:47;94292.41;;;14.39;44.22
32243;BME280;18731;42.830;24.390;2023-04-29T15:52:15;94297.16;;;14.27;44.11
32243;BME280;18731;42.830;24.390;2023-04-29T15:54:40;94280.56;;;14.21;45.04
32243;BME280;18731;42.830;24.390;2023-04-29T15:57:06;94289.75;;;14.20;45.01
32243;BME280;18731;42.830;24.390;2023-04-29T15:59:32;94305.94;;;14.04;45.33
32243;BME280;18731;42.830;24.390;2023-04-29T16:01:58;94303.25;;;14.04;46.40
32243;BME280;18731;42.830;24.390;2023-04-29T16:04:24;94293.50;;;13.96;46.73
32243;BME280;18731;42.830;24.390;2023-04-29T16:06:51;94294.50;;;14.07;46.80
32243;BME280;18731;42.830;24.390;2023-04-29T16:09:18;94295.69;;;14.10;48.29
32243;BME280;18731;42.830;24.390;2023-04-29T16:11:44;94300.28;;;14.09;48.14
32243;BME280;18731;42.830;24.390;2023-04-29T16:14:10;94306.75;;;14.28;49.45
32243;BME280;18731;42.830;24.390;2023-04-29T16:16:35;94298.00;;;14.31;51.41